Time;durP1;ratioP1;P1;durP2;ratioP2;P2;SDS_P1;SDS_P2;PMS_P1;PMS_P2;Temp;Humidity;BMP_temperature;BMP_pressure;BME280_temperature;BME280_humidity;BME280_pressure;Samples;Min_cycle;Max_cycle;Signal;HPM_P1;HPM_P2
2022/01/06 00:01:58;;;;;;;;;;;5.00;99.90;;;;;;4257694;33;42304;-86
2022/01/06 00:04:28;;;;;;;;;;;5.00;99.90;;;;;;4257427;33;40686;-86
2022/01/06 00:06:55;;;;;;;;;;;5.00;99.90;;;;;;4245692;33;40412;-86
2022/01/06 00:09:24;;;;;;;;;;;5.00;99.90;;;;;;4257205;33;36875;-86
2022/01/06 00:11:51;;;;;;;;;;;4.90;99.90;;;;;;4245602;33;32783;-86
2022/01/06 00:14:37;;;;;;;;;;;5.00;99.90;;;;;;4257492;33;36898;-87
2022/01/06 00:17:22;;;;;;;;;;;5.00;99.90;;;;;;4256938;33;40404;-86
2022/01/06 00:25:24;;;;;;;;;;;5.00;99.90;;;;;;4258627;33;35514;-86
2022/01/06 00:27:51;;;;;;;;;;;5.00;99.90;;;;;;4245312;33;34160;-86
2022/01/06 00:30:20;;;;;;;;;;;5.00;99.90;;;;;;4257955;33;20010;-86
2022/01/06 00:32:48;;;;;;;;;;;5.00;99.90;;;;;;4233798;33;32472;-86
2022/01/06 00:35:18;;;;;;;;;;;4.90;99.90;;;;;;4258478;33;20361;-87
2022/01/06 00:37:45;;;;;;;;;;;4.90;99.90;;;;;;4244969;33;42401;-86
2022/01/06 00:40:12;;;;;;;;;;;4.90;99.90;;;;;;4257815;33;20014;-87
2022/01/06 00:42:41;;;;;;;;;;;4.90;99.90;;;;;;4245786;33;44777;-86
2022/01/06 00:45:09;;;;;;;;;;;4.90;99.90;;;;;;4247973;33;31614;-86
2022/01/06 00:47:39;;;;;;;;;;;4.90;99.90;;;;;;4247427;33;39982;-87
2022/01/06 00:50:06;;;;;;;;;;;4.90;99.90;;;;;;4235955;33;38370;-86
2022/01/06 00:52:36;;;;;;;;;;;4.90;99.90;;;;;;4259677;33;39719;-87
2022/01/06 00:55:05;;;;;;;;;;;4.90;99.90;;;;;;4260683;33;37325;-87
2022/01/06 00:57:36;;;;;;;;;;;4.90;99.90;;;;;;4260230;33;37930;-85
2022/01/06 01:00:03;;;;;;;;;;;4.90;99.90;;;;;;4247283;33;40619;-87
2022/01/06 01:02:33;;;;;;;;;;;4.90;99.90;;;;;;4247506;33;39907;-86
2022/01/06 01:05:05;;;;;;;;;;;4.90;99.90;;;;;;4248995;33;31077;-87
2022/01/06 01:07:32;;;;;;;;;;;4.90;99.90;;;;;;4248108;33;39895;-86
2022/01/06 01:10:03;;;;;;;;;;;4.90;99.90;;;;;;4248570;33;27539;-87
2022/01/06 01:12:30;;;;;;;;;;;4.90;99.90;;;;;;4249573;33;20078;-86
2022/01/06 01:15:06;;;;;;;;;;;4.90;99.90;;;;;;4260066;33;32778;-86
2022/01/06 01:17:34;;;;;;;;;;;4.90;99.90;;;;;;4248841;33;38046;-87
2022/01/06 01:20:05;;;;;;;;;;;4.90;99.90;;;;;;4261327;33;20074;-87
2022/01/06 01:22:32;;;;;;;;;;;4.90;99.90;;;;;;4249150;33;20010;-87
2022/01/06 01:24:59;;;;;;;;;;;4.90;99.90;;;;;;4261344;33;20360;-87
2022/01/06 01:27:35;;;;;;;;;;;4.90;99.90;;;;;;4249615;33;20075;-86
2022/01/06 01:30:10;;;;;;;;;;;4.90;99.90;;;;;;4247882;33;41404;-87
2022/01/06 01:32:39;;;;;;;;;;;4.90;99.90;;;;;;4260206;33;37187;-87
2022/01/06 01:35:09;;;;;;;;;;;4.90;99.90;;;;;;4259844;33;39070;-86
2022/01/06 01:37:37;;;;;;;;;;;4.90;99.90;;;;;;4248492;33;39233;-87
2022/01/06 01:40:07;;;;;;;;;;;4.90;99.90;;;;;;4260492;33;25858;-86
2022/01/06 01:42:34;;;;;;;;;;;4.90;99.90;;;;;;4259865;33;30304;-87
2022/01/06 01:45:03;;;;;;;;;;;4.90;99.90;;;;;;4247834;33;46851;-88
2022/01/06 01:47:44;;;;;;;;;;;4.90;99.90;;;;;;4236951;33;20208;-87
2022/01/06 01:50:15;;;;;;;;;;;4.90;99.90;;;;;;4248486;33;35440;-87
2022/01/06 01:52:48;;;;;;;;;;;4.90;99.90;;;;;;4247962;33;40763;-86
2022/01/06 01:55:20;;;;;;;;;;;4.90;99.90;;;;;;4260828;33;42650;-86
2022/01/06 01:57:48;;;;;;;;;;;4.90;99.90;;;;;;4261715;33;20003;-86
2022/01/06 02:00:16;;;;;;;;;;;4.90;99.90;;;;;;4235889;33;36143;-86
2022/01/06 02:02:43;;;;;;;;;;;4.90;99.90;;;;;;4259565;33;34726;-86
2022/01/06 02:05:11;;;;;;;;;;;4.90;99.90;;;;;;4247615;33;42330;-86
2022/01/06 02:07:41;;;;;;;;;;;4.90;99.90;;;;;;4247370;33;37692;-86
2022/01/06 02:10:10;;;;;;;;;;;4.90;99.90;;;;;;4235586;33;39559;-87
2022/01/06 02:12:38;;;;;;;;;;;4.90;99.90;;;;;;4259354;33;41056;-87
2022/01/06 02:15:09;;;;;;;;;;;4.90;99.90;;;;;;4248749;33;20003;-87
2022/01/06 02:17:39;;;;;;;;;;;4.90;99.90;;;;;;4259387;33;40441;-87
2022/01/06 02:20:10;;;;;;;;;;;4.90;99.90;;;;;;4259338;33;42658;-87
2022/01/06 02:22:38;;;;;;;;;;;4.90;99.90;;;;;;4248497;33;20043;-86
2022/01/06 02:25:12;;;;;;;;;;;4.90;99.90;;;;;;4260520;33;37528;-87
2022/01/06 02:27:43;;;;;;;;;;;4.90;99.90;;;;;;4259606;33;20019;-87
2022/01/06 02:30:14;;;;;;;;;;;4.90;99.90;;;;;;4247757;33;40910;-86
2022/01/06 02:32:41;;;;;;;;;;;4.90;99.90;;;;;;4260571;33;20022;-87
2022/01/06 02:35:12;;;;;;;;;;;4.90;99.90;;;;;;4259848;33;20009;-86
2022/01/06 02:37:41;;;;;;;;;;;4.90;99.90;;;;;;4259534;33;34949;-86
2022/01/06 02:40:14;;;;;;;;;;;4.90;99.90;;;;;;4247149;33;44118;-86
2022/01/06 02:42:46;;;;;;;;;;;4.90;99.90;;;;;;4248043;33;25821;-86
2022/01/06 02:45:13;;;;;;;;;;;4.90;99.90;;;;;;4247398;33;34216;-86
2022/01/06 02:47:40;;;;;;;;;;;4.90;99.90;;;;;;4247282;33;40255;-86
2022/01/06 02:50:09;;;;;;;;;;;4.90;99.90;;;;;;4259124;33;40215;-87
2022/01/06 02:52:38;;;;;;;;;;;4.90;99.90;;;;;;4247601;33;20397;-87
2022/01/06 02:55:06;;;;;;;;;;;4.80;99.90;;;;;;4259287;33;35221;-86
2022/01/06 02:57:33;;;;;;;;;;;4.90;99.90;;;;;;4248390;33;20010;-86
2022/01/06 03:00:03;;;;;;;;;;;4.90;99.90;;;;;;4247739;33;20047;-86
2022/01/06 03:02:30;;;;;;;;;;;4.90;99.90;;;;;;4247721;33;20007;-87
2022/01/06 03:04:58;;;;;;;;;;;4.80;99.90;;;;;;4246220;33;34083;-86
2022/01/06 03:07:28;;;;;;;;;;;4.80;99.90;;;;;;4258764;33;29175;-86
2022/01/06 03:09:57;;;;;;;;;;;4.90;99.90;;;;;;4246691;33;31986;-86
2022/01/06 03:12:33;;;;;;;;;;;4.80;99.90;;;;;;4235522;33;40010;-86
2022/01/06 03:15:02;;;;;;;;;;;4.90;99.90;;;;;;4246410;33;38751;-86
2022/01/06 03:17:29;;;;;;;;;;;4.90;99.90;;;;;;4246977;33;28050;-87
2022/01/06 03:19:56;;;;;;;;;;;4.80;99.90;;;;;;4258815;33;22418;-86
2022/01/06 03:22:23;;;;;;;;;;;4.80;99.90;;;;;;4246367;33;39482;-86
2022/01/06 03:24:51;;;;;;;;;;;4.80;99.90;;;;;;4246211;33;46035;-86
2022/01/06 03:27:20;;;;;;;;;;;4.90;99.90;;;;;;4247352;33;20009;-87
2022/01/06 03:29:49;;;;;;;;;;;4.90;99.90;;;;;;4259931;33;29922;-87
2022/01/06 03:32:18;;;;;;;;;;;4.90;99.90;;;;;;4258241;33;40529;-87
2022/01/06 03:34:45;;;;;;;;;;;4.80;99.90;;;;;;4259663;33;36456;-87
2022/01/06 03:37:13;;;;;;;;;;;4.80;99.90;;;;;;4234824;33;27528;-86
2022/01/06 03:39:41;;;;;;;;;;;4.80;99.90;;;;;;4258234;33;42344;-87
2022/01/06 03:42:08;;;;;;;;;;;4.80;99.90;;;;;;4246653;33;37066;-87
2022/01/06 03:44:35;;;;;;;;;;;4.80;99.90;;;;;;4246181;33;40236;-86
2022/01/06 03:47:04;;;;;;;;;;;4.80;99.90;;;;;;4246258;33;37060;-86
2022/01/06 03:49:31;;;;;;;;;;;4.80;99.90;;;;;;4246493;33;32546;-86
2022/01/06 03:51:58;;;;;;;;;;;4.80;99.90;;;;;;4246319;33;33458;-86
2022/01/06 03:54:31;;;;;;;;;;;4.80;99.90;;;;;;4258908;33;32713;-86
2022/01/06 03:56:59;;;;;;;;;;;4.80;99.90;;;;;;4257686;33;40877;-86
2022/01/06 03:59:26;;;;;;;;;;;4.80;99.90;;;;;;4245837;33;37153;-86
2022/01/06 04:01:53;;;;;;;;;;;4.80;99.90;;;;;;4260035;33;20479;-87
2022/01/06 04:04:20;;;;;;;;;;;4.80;99.90;;;;;;4245901;33;37528;-87
2022/01/06 04:06:50;;;;;;;;;;;4.80;99.90;;;;;;4234424;33;32534;-87
2022/01/06 04:09:17;;;;;;;;;;;4.80;99.90;;;;;;4258446;33;20455;-87
2022/01/06 04:11:44;;;;;;;;;;;4.80;99.90;;;;;;4245696;33;42376;-86
2022/01/06 04:14:14;;;;;;;;;;;4.80;99.90;;;;;;4257482;33;39447;-86
2022/01/06 04:16:44;;;;;;;;;;;4.70;99.90;;;;;;4257510;33;41015;-86
2022/01/06 04:19:11;;;;;;;;;;;4.80;99.90;;;;;;4245904;33;35622;-87
2022/01/06 04:21:38;;;;;;;;;;;4.80;99.90;;;;;;4246720;33;20413;-86
2022/01/06 04:24:05;;;;;;;;;;;4.70;99.90;;;;;;4257776;33;28287;-86
2022/01/06 04:26:32;;;;;;;;;;;4.80;99.90;;;;;;4245823;33;35767;-87
2022/01/06 04:28:59;;;;;;;;;;;4.70;99.90;;;;;;4246317;33;33482;-86
2022/01/06 04:31:27;;;;;;;;;;;4.70;99.90;;;;;;4246153;33;23156;-86
2022/01/06 04:33:56;;;;;;;;;;;4.70;99.90;;;;;;4257845;33;40025;-87
2022/01/06 04:36:23;;;;;;;;;;;4.70;99.90;;;;;;4234973;33;20115;-86
2022/01/06 04:38:50;;;;;;;;;;;4.70;99.90;;;;;;4258780;33;20025;-87
2022/01/06 04:41:20;;;;;;;;;;;4.70;99.90;;;;;;4247623;33;20017;-86
2022/01/06 04:43:47;;;;;;;;;;;4.70;99.90;;;;;;4234207;33;31337;-86
2022/01/06 04:46:19;;;;;;;;;;;4.70;99.90;;;;;;4246500;33;20006;-86
2022/01/06 04:48:46;;;;;;;;;;;4.70;99.90;;;;;;4258104;33;39229;-86
2022/01/06 04:51:16;;;;;;;;;;;4.70;99.90;;;;;;4258834;33;20084;-86
2022/01/06 04:53:46;;;;;;;;;;;4.60;99.90;;;;;;4245997;33;28275;-86
2022/01/06 04:56:17;;;;;;;;;;;4.70;99.90;;;;;;4257396;33;40464;-86
2022/01/06 04:58:44;;;;;;;;;;;4.60;99.90;;;;;;4257249;33;37592;-86
2022/01/06 05:01:13;;;;;;;;;;;4.60;99.90;;;;;;4245857;33;31281;-86
2022/01/06 05:03:41;;;;;;;;;;;4.60;99.90;;;;;;4246728;33;19999;-86
2022/01/06 05:06:10;;;;;;;;;;;4.60;99.90;;;;;;4246031;33;20018;-86
2022/01/06 05:08:37;;;;;;;;;;;4.60;99.90;;;;;;4245648;33;30139;-87
2022/01/06 05:11:04;;;;;;;;;;;4.60;99.90;;;;;;4259204;33;20007;-86
2022/01/06 05:13:31;;;;;;;;;;;4.60;99.90;;;;;;4245671;33;31682;-86
2022/01/06 05:15:59;;;;;;;;;;;4.60;99.90;;;;;;4257743;33;25419;-87
2022/01/06 05:18:26;;;;;;;;;;;4.60;99.90;;;;;;4245930;33;35530;-86
2022/01/06 05:20:53;;;;;;;;;;;4.60;99.90;;;;;;4257631;33;23608;-86
2022/01/06 05:23:20;;;;;;;;;;;4.60;99.90;;;;;;4233709;33;35488;-86
2022/01/06 05:25:47;;;;;;;;;;;4.60;99.90;;;;;;4245559;33;39661;-86
2022/01/06 05:28:14;;;;;;;;;;;4.60;99.90;;;;;;4257931;33;34269;-86
2022/01/06 05:30:41;;;;;;;;;;;4.60;99.90;;;;;;4248134;33;40370;-86
2022/01/06 05:33:10;;;;;;;;;;;4.50;99.90;;;;;;4260094;33;38979;-87
2022/01/06 05:35:37;;;;;;;;;;;4.60;99.90;;;;;;4247737;33;46949;-87
2022/01/06 05:38:04;;;;;;;;;;;4.50;99.90;;;;;;4261017;33;40615;-87
2022/01/06 05:40:31;;;;;;;;;;;4.50;99.90;;;;;;4247942;33;34847;-86
2022/01/06 05:42:58;;;;;;;;;;;4.50;99.90;;;;;;4248059;33;25341;-86
2022/01/06 05:45:26;;;;;;;;;;;4.50;99.90;;;;;;4259980;33;38886;-86
2022/01/06 05:47:53;;;;;;;;;;;4.50;99.90;;;;;;4249148;33;20547;-86
2022/01/06 05:50:21;;;;;;;;;;;4.60;99.90;;;;;;4247931;33;32940;-86
2022/01/06 05:52:48;;;;;;;;;;;4.50;99.90;;;;;;4236425;33;28607;-86
2022/01/06 05:55:15;;;;;;;;;;;4.50;99.90;;;;;;4261018;33;39351;-86
2022/01/06 05:57:47;;;;;;;;;;;4.50;99.90;;;;;;4259529;33;33349;-87
2022/01/06 06:00:15;;;;;;;;;;;4.50;99.90;;;;;;4248085;33;28433;-86
2022/01/06 06:02:52;;;;;;;;;;;4.50;99.90;;;;;;4260000;33;26161;-87
2022/01/06 06:05:22;;;;;;;;;;;4.50;99.90;;;;;;4260105;33;34938;-86
2022/01/06 06:07:52;;;;;;;;;;;4.50;99.90;;;;;;4248059;33;29440;-86
2022/01/06 06:10:22;;;;;;;;;;;4.50;99.90;;;;;;4260421;33;33885;-86
2022/01/06 06:12:52;;;;;;;;;;;4.50;99.90;;;;;;4247413;33;36995;-87
2022/01/06 06:15:22;;;;;;;;;;;4.50;99.90;;;;;;4259320;33;32742;-86
2022/01/06 06:17:52;;;;;;;;;;;4.50;99.90;;;;;;4248730;33;20049;-86
2022/01/06 06:20:19;;;;;;;;;;;4.50;99.90;;;;;;4248633;33;19991;-86
2022/01/06 06:22:46;;;;;;;;;;;4.50;99.90;;;;;;4260461;33;20422;-87
2022/01/06 06:25:13;;;;;;;;;;;4.50;99.90;;;;;;4248662;33;20015;-87
2022/01/06 06:27:43;;;;;;;;;;;4.50;99.90;;;;;;4260242;33;20019;-87
2022/01/06 06:30:11;;;;;;;;;;;4.50;99.90;;;;;;4248139;33;20045;-87
2022/01/06 06:32:40;;;;;;;;;;;4.50;99.90;;;;;;4261356;33;20007;-87
2022/01/06 06:35:10;;;;;;;;;;;4.50;99.90;;;;;;4261465;33;20021;-87
2022/01/06 06:37:37;;;;;;;;;;;4.50;99.90;;;;;;4248179;33;20007;-86
2022/01/06 06:40:05;;;;;;;;;;;4.50;99.90;;;;;;4259381;33;20076;-86
2022/01/06 06:42:35;;;;;;;;;;;4.40;99.90;;;;;;4259748;33;20010;-86
2022/01/06 06:45:02;;;;;;;;;;;4.50;99.90;;;;;;4261102;33;20058;-87
2022/01/06 06:47:30;;;;;;;;;;;4.40;99.90;;;;;;4248061;33;20009;-87
2022/01/06 06:49:59;;;;;;;;;;;4.40;99.90;;;;;;4247497;33;20015;-87
2022/01/06 06:52:26;;;;;;;;;;;4.40;99.90;;;;;;4261057;33;20055;-86
2022/01/06 06:54:54;;;;;;;;;;;4.40;99.90;;;;;;4259108;33;20014;-87
2022/01/06 06:57:21;;;;;;;;;;;4.40;99.90;;;;;;4259786;33;20025;-86
2022/01/06 06:59:48;;;;;;;;;;;4.40;99.90;;;;;;4247976;33;20003;-86
2022/01/06 07:02:18;;;;;;;;;;;4.40;99.90;;;;;;4247154;33;20063;-86
2022/01/06 07:04:45;;;;;;;;;;;4.40;99.90;;;;;;4247762;33;20022;-86
2022/01/06 07:07:14;;;;;;;;;;;4.40;99.90;;;;;;4246979;33;20007;-86
2022/01/06 07:09:41;;;;;;;;;;;4.40;99.90;;;;;;4258878;33;20015;-86
2022/01/06 07:12:09;;;;;;;;;;;4.30;99.90;;;;;;4247500;33;20015;-86
2022/01/06 07:14:36;;;;;;;;;;;4.30;99.90;;;;;;4247674;33;20018;-86
2022/01/06 07:17:04;;;;;;;;;;;4.30;99.90;;;;;;4247015;33;20409;-86
2022/01/06 07:19:31;;;;;;;;;;;4.30;99.90;;;;;;4247793;33;20439;-86
2022/01/06 07:21:58;;;;;;;;;;;4.30;99.90;;;;;;4259004;33;20077;-86
2022/01/06 07:24:25;;;;;;;;;;;4.30;99.90;;;;;;4247404;33;20472;-86
2022/01/06 07:26:52;;;;;;;;;;;4.30;99.90;;;;;;4247170;33;20067;-86
2022/01/06 07:29:22;;;;;;;;;;;4.30;99.90;;;;;;4247443;33;20058;-86
2022/01/06 07:31:50;;;;;;;;;;;4.30;99.90;;;;;;4259446;33;20014;-86
2022/01/06 07:34:18;;;;;;;;;;;4.30;99.90;;;;;;4247196;33;20394;-86
2022/01/06 07:36:45;;;;;;;;;;;4.30;99.90;;;;;;4247262;33;20010;-86
2022/01/06 07:39:12;;;;;;;;;;;4.30;99.90;;;;;;4258754;33;20003;-86
2022/01/06 07:41:42;;;;;;;;;;;4.30;99.90;;;;;;4247171;33;20011;-86
2022/01/06 07:44:09;;;;;;;;;;;4.20;99.90;;;;;;4247315;33;19996;-85
2022/01/06 07:46:37;;;;;;;;;;;4.20;99.90;;;;;;4247473;33;20431;-86
2022/01/06 07:49:04;;;;;;;;;;;4.30;99.90;;;;;;4258526;33;20086;-85
2022/01/06 07:51:31;;;;;;;;;;;4.20;99.90;;;;;;4247031;33;20003;-85
2022/01/06 07:53:59;;;;;;;;;;;4.30;99.90;;;;;;4258671;33;20101;-85
2022/01/06 07:56:26;;;;;;;;;;;4.20;99.90;;;;;;4258554;33;20044;-85
2022/01/06 07:58:56;;;;;;;;;;;4.20;99.90;;;;;;4258781;33;19991;-85
2022/01/06 08:01:24;;;;;;;;;;;4.30;99.90;;;;;;4258737;33;20011;-85
2022/01/06 08:03:51;;;;;;;;;;;4.20;99.90;;;;;;4247674;33;20059;-85
2022/01/06 08:06:19;;;;;;;;;;;4.20;99.90;;;;;;4258773;33;20018;-85
2022/01/06 08:08:46;;;;;;;;;;;4.20;99.90;;;;;;4259086;33;20010;-85
2022/01/06 08:11:14;;;;;;;;;;;4.20;99.90;;;;;;4259617;33;20026;-85
2022/01/06 08:13:41;;;;;;;;;;;4.20;99.90;;;;;;4247149;33;20372;-85
2022/01/06 08:16:11;;;;;;;;;;;4.20;99.90;;;;;;4246683;33;20007;-85
2022/01/06 08:18:38;;;;;;;;;;;4.20;99.90;;;;;;4258382;33;20027;-85
2022/01/06 08:21:08;;;;;;;;;;;4.20;99.90;;;;;;4246788;33;20007;-85
2022/01/06 08:23:36;;;;;;;;;;;4.20;99.90;;;;;;4258603;33;20013;-85
2022/01/06 08:26:03;;;;;;;;;;;4.20;99.90;;;;;;4258615;33;20397;-85
2022/01/06 08:28:30;;;;;;;;;;;4.10;99.90;;;;;;4247059;33;20008;-85
2022/01/06 08:31:00;;;;;;;;;;;4.20;99.90;;;;;;4258429;33;20651;-85
2022/01/06 08:33:33;;;;;;;;;;;4.20;99.90;;;;;;4246703;33;20052;-85
2022/01/06 08:36:00;;;;;;;;;;;4.20;99.90;;;;;;4258746;33;19999;-85
2022/01/06 08:38:29;;;;;;;;;;;4.20;99.90;;;;;;4246916;33;20434;-85
2022/01/06 08:40:56;;;;;;;;;;;4.20;99.90;;;;;;4259832;33;20007;-84
2022/01/06 08:43:27;;;;;;;;;;;4.20;99.90;;;;;;4258245;33;20019;-84
2022/01/06 08:45:56;;;;;;;;;;;4.10;99.90;;;;;;4246744;33;20070;-85
2022/01/06 08:48:24;;;;;;;;;;;4.10;99.90;;;;;;4257905;33;31059;-85
2022/01/06 08:50:51;;;;;;;;;;;4.20;99.90;;;;;;4245787;33;37857;-84
2022/01/06 08:53:22;;;;;;;;;;;4.10;99.90;;;;;;4258175;33;20006;-85
2022/01/06 08:55:50;;;;;;;;;;;4.20;99.90;;;;;;4245989;33;36470;-85
2022/01/06 08:58:17;;;;;;;;;;;4.10;99.90;;;;;;4245714;33;26508;-85
2022/01/06 09:00:47;;;;;;;;;;;4.10;99.90;;;;;;4258205;33;38980;-85
2022/01/06 09:03:14;;;;;;;;;;;4.20;99.90;;;;;;4257559;33;39329;-85
2022/01/06 09:05:42;;;;;;;;;;;4.20;99.90;;;;;;4260771;33;22962;-85
2022/01/06 09:08:09;;;;;;;;;;;4.10;99.90;;;;;;4248781;33;29224;-85
2022/01/06 09:10:38;;;;;;;;;;;4.20;99.90;;;;;;4260670;33;29391;-85
2022/01/06 09:13:28;;;;;;;;;;;4.20;99.90;;;;;;4249436;33;20318;-85
2022/01/06 09:15:56;;;;;;;;;;;4.20;99.90;;;;;;4260071;33;37601;-85
2022/01/06 09:18:26;;;;;;;;;;;4.20;99.90;;;;;;4236841;33;30463;-85
2022/01/06 09:20:53;;;;;;;;;;;4.20;99.90;;;;;;4247936;33;35768;-85
2022/01/06 09:23:20;;;;;;;;;;;4.20;99.90;;;;;;4248267;33;29021;-85
2022/01/06 09:25:47;;;;;;;;;;;4.20;99.90;;;;;;4261268;33;24483;-85
2022/01/06 09:28:14;;;;;;;;;;;4.20;99.90;;;;;;4259930;33;32532;-85
2022/01/06 09:30:42;;;;;;;;;;;4.10;99.90;;;;;;4248594;33;25142;-84
2022/01/06 09:33:14;;;;;;;;;;;4.10;99.90;;;;;;4248827;33;20030;-84
2022/01/06 09:35:41;;;;;;;;;;;4.10;99.90;;;;;;4247733;33;38446;-85
2022/01/06 09:38:09;;;;;;;;;;;4.20;99.90;;;;;;4259892;33;31628;-84
2022/01/06 09:40:39;;;;;;;;;;;4.20;99.90;;;;;;4259898;33;32128;-85
2022/01/06 09:43:06;;;;;;;;;;;4.10;99.90;;;;;;4247896;33;32946;-84
2022/01/06 09:45:35;;;;;;;;;;;4.20;99.90;;;;;;4259654;33;33155;-85
2022/01/06 09:48:04;;;;;;;;;;;4.20;99.90;;;;;;4260982;33;36834;-85
2022/01/06 09:50:31;;;;;;;;;;;4.20;99.90;;;;;;4247586;33;41235;-85
2022/01/06 09:52:58;;;;;;;;;;;4.20;99.90;;;;;;4248115;33;37626;-85
2022/01/06 09:55:26;;;;;;;;;;;4.20;99.90;;;;;;4247643;33;27268;-85
2022/01/06 09:57:57;;;;;;;;;;;4.20;99.90;;;;;;4248765;33;20416;-85
2022/01/06 10:00:25;;;;;;;;;;;4.20;99.90;;;;;;4248679;33;20402;-85
2022/01/06 10:02:57;;;;;;;;;;;4.20;99.90;;;;;;4247444;33;39865;-85
2022/01/06 10:05:36;;;;;;;;;;;4.20;99.90;;;;;;4248491;33;23903;-85
2022/01/06 10:08:05;;;;;;;;;;;4.20;99.90;;;;;;4248180;33;20218;-85
2022/01/06 10:10:34;;;;;;;;;;;4.20;99.90;;;;;;4247265;33;36292;-85
2022/01/06 10:13:07;;;;;;;;;;;4.20;99.90;;;;;;4259823;33;31635;-85
2022/01/06 10:15:41;;;;;;;;;;;4.20;99.90;;;;;;4235668;33;29675;-85
2022/01/06 10:18:14;;;;;;;;;;;4.20;99.90;;;;;;4260566;33;35056;-85
2022/01/06 10:20:41;;;;;;;;;;;4.20;99.90;;;;;;4261270;33;20007;-84
2022/01/06 10:23:14;;;;;;;;;;;4.20;99.90;;;;;;4247873;33;20009;-84
2022/01/06 10:25:49;;;;;;;;;;;4.30;99.90;;;;;;4259147;33;23417;-85
2022/01/06 10:28:22;;;;;;;;;;;4.30;99.90;;;;;;4248361;33;28231;-83
2022/01/06 10:30:49;;;;;;;;;;;4.30;99.90;;;;;;4247360;33;27434;-85
2022/01/06 10:33:18;;;;;;;;;;;4.30;99.90;;;;;;4247441;33;28566;-85
2022/01/06 10:35:48;;;;;;;;;;;4.30;99.90;;;;;;4247412;33;29326;-85
2022/01/06 10:38:30;;;;;;;;;;;4.30;99.90;;;;;;4260083;33;37677;-84
2022/01/06 10:41:13;;;;;;;;;;;4.30;99.90;;;;;;4235457;33;32548;-85
2022/01/06 10:43:41;;;;;;;;;;;4.30;99.90;;;;;;4246720;33;37025;-84
2022/01/06 10:46:08;;;;;;;;;;;4.30;99.90;;;;;;4259850;33;30770;-84
2022/01/06 10:48:35;;;;;;;;;;;4.30;99.90;;;;;;4258424;33;39748;-85
2022/01/06 10:51:05;;;;;;;;;;;4.30;99.90;;;;;;4236700;33;20044;-85
2022/01/06 10:53:35;;;;;;;;;;;4.30;99.90;;;;;;4246901;33;26092;-85
2022/01/06 10:56:02;;;;;;;;;;;4.30;99.90;;;;;;4246720;33;33240;-85
2022/01/06 10:58:29;;;;;;;;;;;4.40;99.90;;;;;;4247437;33;23283;-85
2022/01/06 11:01:03;;;;;;;;;;;4.40;99.90;;;;;;4246478;33;33758;-84
2022/01/06 11:03:36;;;;;;;;;;;4.30;99.90;;;;;;4259180;33;41054;-84
2022/01/06 11:06:04;;;;;;;;;;;4.40;99.90;;;;;;4258709;33;40913;-85
2022/01/06 11:08:32;;;;;;;;;;;4.40;99.90;;;;;;4234776;33;40434;-85
2022/01/06 11:13:41;;;;;;;;;;;4.40;99.90;;;;;;4259078;33;20496;-84
2022/01/06 11:16:09;;;;;;;;;;;4.40;99.90;;;;;;4259143;33;20365;-85
2022/01/06 11:18:49;;;;;;;;;;;4.40;99.90;;;;;;4247487;33;20007;-85
2022/01/06 11:21:18;;;;;;;;;;;4.40;99.90;;;;;;4247116;33;37275;-83
2022/01/06 11:23:46;;;;;;;;;;;4.50;99.90;;;;;;4246463;33;41897;-83
2022/01/06 11:26:17;;;;;;;;;;;4.50;99.90;;;;;;4245672;33;39979;-84
2022/01/06 11:28:53;;;;;;;;;;;4.50;99.90;;;;;;4246413;33;32839;-84
2022/01/06 11:31:24;;;;;;;;;;;4.50;99.90;;;;;;4246232;33;41251;-84
2022/01/06 11:33:52;;;;;;;;;;;4.50;99.90;;;;;;4247072;33;27174;-84
2022/01/06 11:36:32;;;;;;;;;;;4.50;99.90;;;;;;4258027;33;40754;-84
2022/01/06 11:39:00;;;;;;;;;;;4.60;99.90;;;;;;4257531;33;44995;-84
2022/01/06 11:41:31;;;;;;;;;;;4.60;99.90;;;;;;4245990;33;37338;-84
2022/01/06 11:43:58;;;;;;;;;;;4.60;99.90;;;;;;4246375;33;31573;-84
2022/01/06 11:46:26;;;;;;;;;;;4.60;99.90;;;;;;4246074;33;42716;-84
2022/01/06 11:48:54;;;;;;;;;;;4.60;99.90;;;;;;4246246;33;35924;-84
2022/01/06 11:51:23;;;;;;;;;;;4.70;99.90;;;;;;4258550;33;38234;-84
2022/01/06 11:53:50;;;;;;;;;;;4.70;99.90;;;;;;4259159;33;20011;-84
2022/01/06 11:56:17;;;;;;;;;;;4.70;99.90;;;;;;4247378;33;20539;-84
2022/01/06 11:59:12;;;;;;;;;;;4.70;99.90;;;;;;4259355;33;20067;-86
2022/01/06 12:01:57;;;;;;;;;;;4.70;99.90;;;;;;4236299;33;20007;-86
2022/01/06 12:04:27;;;;;;;;;;;4.70;99.90;;;;;;4247014;33;20008;-85
2022/01/06 12:07:09;;;;;;;;;;;4.70;99.90;;;;;;4246151;33;43644;-86
2022/01/06 12:09:36;;;;;;;;;;;4.70;99.90;;;;;;4246427;33;42551;-85
2022/01/06 12:12:05;;;;;;;;;;;4.70;99.90;;;;;;4258947;33;30515;-85
2022/01/06 12:14:32;;;;;;;;;;;4.70;99.90;;;;;;4259336;33;20018;-83
2022/01/06 12:17:07;;;;;;;;;;;4.70;99.90;;;;;;4245958;33;20007;-83
2022/01/06 12:19:36;;;;;;;;;;;4.70;99.90;;;;;;4246611;33;25481;-83
2022/01/06 12:22:09;;;;;;;;;;;4.70;99.90;;;;;;4258704;33;36140;-83
2022/01/06 12:24:36;;;;;;;;;;;4.80;99.90;;;;;;4246180;33;30253;-82
2022/01/06 12:27:04;;;;;;;;;;;4.70;99.90;;;;;;4258078;33;29379;-83
2022/01/06 12:29:38;;;;;;;;;;;4.70;99.90;;;;;;4246394;33;30658;-83
2022/01/06 12:32:09;;;;;;;;;;;4.80;99.90;;;;;;4259109;33;36834;-83
2022/01/06 12:34:43;;;;;;;;;;;4.70;99.90;;;;;;4258034;33;34792;-83
2022/01/06 12:37:10;;;;;;;;;;;4.80;99.90;;;;;;4245843;33;44356;-83
2022/01/06 12:39:40;;;;;;;;;;;4.80;99.90;;;;;;4260769;33;33436;-83
2022/01/06 12:42:09;;;;;;;;;;;4.80;99.90;;;;;;4261647;33;33208;-83
2022/01/06 12:44:39;;;;;;;;;;;4.80;99.90;;;;;;4262509;33;20026;-83
2022/01/06 12:47:10;;;;;;;;;;;4.80;99.90;;;;;;4261478;33;20070;-83
2022/01/06 12:49:38;;;;;;;;;;;4.80;99.90;;;;;;4261221;33;20517;-83
2022/01/06 12:52:06;;;;;;;;;;;4.80;99.90;;;;;;4261547;33;20011;-83
2022/01/06 12:54:34;;;;;;;;;;;4.80;99.90;;;;;;4262884;33;20002;-83
2022/01/06 12:57:06;;;;;;;;;;;4.90;99.90;;;;;;4261215;33;19999;-82
2022/01/06 12:59:37;;;;;;;;;;;4.80;99.90;;;;;;4261607;33;19999;-83
2022/01/06 13:02:08;;;;;;;;;;;4.80;99.90;;;;;;4262136;33;20011;-83
2022/01/06 13:04:42;;;;;;;;;;;4.90;99.90;;;;;;4249831;33;20064;-83
2022/01/06 13:07:13;;;;;;;;;;;4.90;99.90;;;;;;4261058;33;19995;-83
2022/01/06 13:09:43;;;;;;;;;;;4.90;99.90;;;;;;4262456;33;20059;-83
2022/01/06 13:12:24;;;;;;;;;;;4.90;99.90;;;;;;4248758;33;41842;-83
2022/01/06 13:14:54;;;;;;;;;;;4.90;99.90;;;;;;4249268;33;19995;-83
2022/01/06 13:17:31;;;;;;;;;;;5.00;99.90;;;;;;4260486;33;20007;-83
2022/01/06 13:20:08;;;;;;;;;;;4.90;99.90;;;;;;4261289;33;20011;-83
2022/01/06 13:25:33;;;;;;;;;;;5.00;99.90;;;;;;4261684;33;20075;-83
2022/01/06 13:28:05;;;;;;;;;;;4.90;99.90;;;;;;4260155;33;28801;-83
2022/01/06 13:30:41;;;;;;;;;;;5.00;99.90;;;;;;4260138;33;26200;-82
2022/01/06 13:33:12;;;;;;;;;;;5.00;99.90;;;;;;4248697;33;20280;-83
2022/01/06 13:35:50;;;;;;;;;;;5.00;99.90;;;;;;4262456;33;20078;-83
2022/01/06 13:38:24;;;;;;;;;;;5.00;99.90;;;;;;4248443;33;31351;-83
2022/01/06 13:40:58;;;;;;;;;;;5.00;99.90;;;;;;4261078;33;44088;-83
2022/01/06 13:43:26;;;;;;;;;;;5.00;99.90;;;;;;4248817;33;20405;-82
2022/01/06 13:45:56;;;;;;;;;;;5.10;99.90;;;;;;4249197;33;20000;-82
2022/01/06 13:48:39;;;;;;;;;;;5.00;99.90;;;;;;4261870;33;20012;-83
2022/01/06 13:51:13;;;;;;;;;;;5.10;99.90;;;;;;4249189;33;20029;-82
2022/01/06 13:53:48;;;;;;;;;;;5.10;99.90;;;;;;4260647;33;20435;-83
2022/01/06 13:56:20;;;;;;;;;;;5.10;99.90;;;;;;4249290;33;20008;-82
2022/01/06 13:58:48;;;;;;;;;;;5.10;99.90;;;;;;4247957;33;44985;-83
2022/01/06 14:01:17;;;;;;;;;;;5.10;99.90;;;;;;4260511;33;37385;-83
2022/01/06 14:03:47;;;;;;;;;;;5.10;99.90;;;;;;4248677;33;20011;-83
2022/01/06 14:06:15;;;;;;;;;;;5.10;99.90;;;;;;4259736;33;27162;-83
2022/01/06 14:08:43;;;;;;;;;;;5.20;99.90;;;;;;4260191;33;20045;-83
2022/01/06 14:11:14;;;;;;;;;;;5.10;99.90;;;;;;4260866;33;31879;-82
2022/01/06 14:13:42;;;;;;;;;;;5.10;99.90;;;;;;4247803;33;39590;-83
2022/01/06 14:16:12;;;;;;;;;;;5.20;99.90;;;;;;4248498;33;20133;-83
2022/01/06 14:18:43;;;;;;;;;;;5.20;99.90;;;;;;4247381;33;37395;-82
2022/01/06 14:21:10;;;;;;;;;;;5.20;99.90;;;;;;4247787;33;40552;-82
2022/01/06 14:23:37;;;;;;;;;;;5.20;99.90;;;;;;4247465;33;38515;-82
2022/01/06 14:26:05;;;;;;;;;;;5.20;99.90;;;;;;4260385;33;37369;-83
2022/01/06 14:28:32;;;;;;;;;;;5.20;99.90;;;;;;4247299;33;35903;-83
2022/01/06 14:31:05;;;;;;;;;;;5.20;99.90;;;;;;4247158;33;43737;-83
2022/01/06 14:33:34;;;;;;;;;;;5.20;99.90;;;;;;4260778;33;33485;-83
2022/01/06 14:36:02;;;;;;;;;;;5.20;99.90;;;;;;4259235;33;35050;-82
2022/01/06 14:38:40;;;;;;;;;;;5.20;99.90;;;;;;4260304;33;38134;-83
2022/01/06 14:41:08;;;;;;;;;;;5.20;99.90;;;;;;4247478;33;30635;-83
2022/01/06 14:43:36;;;;;;;;;;;5.20;99.90;;;;;;4259838;33;35813;-83
2022/01/06 14:46:09;;;;;;;;;;;5.20;99.90;;;;;;4247073;33;37269;-83
2022/01/06 14:48:41;;;;;;;;;;;5.20;99.90;;;;;;4259426;33;32508;-82
2022/01/06 14:51:09;;;;;;;;;;;5.20;99.90;;;;;;4247445;33;35633;-83
2022/01/06 14:53:41;;;;;;;;;;;5.30;99.90;;;;;;4260109;33;39597;-83
2022/01/06 14:56:11;;;;;;;;;;;5.20;99.90;;;;;;4248590;33;20070;-83